Boston, Massachusetts
Traffic Map
Current Weather Conditions
Boston, Massachusetts
Overcast
Overcast
57°
Feels Like: 57°
Wind Chill: 57° Ceiling: 1400
Heat Index: 57° Visibility: 10mi
Dew Point: 55° Wind: 8mph
Humidity: 93% Direction: 360° (N)
Pressure: 30.05in Gusts: 0mph
Raw Report DataKBOS 251054Z 36007KT 10SM SCT008 OVC014 14/13 A3005 RMK AO2 SLP175 T01390128 $
Traffic Incident Summary
Active as of:
Severity:
Category:
InformationThere was an issue retrieving the traffic information for this location. Please try a different location or try again shortly.
Advertisements
Track Severe Weather on mobile